Time;durP1;ratioP1;P1;durP2;ratioP2;P2;SDS_P1;SDS_P2;PMS_P1;PMS_P2;Temp;Humidity;BMP_temperature;BMP_pressure;BME280_temperature;BME280_humidity;BME280_pressure;Samples;Min_cycle;Max_cycle;Signal;HPM_P1;HPM_P2
2023/11/21 00:01:43;;;;;;;;;;;;;;;;;;4880898;29;19926;-79
2023/11/21 00:04:09;;;;;;;;;;;;;;;;;;4913399;29;19922;-79
2023/11/21 00:06:34;;;;;;;;;;;;;;;;;;4913923;29;19923;-79
2023/11/21 00:09:00;;;;;;;;;;;;;;;;;;4895396;29;20330;-79
2023/11/21 00:11:29;;;;;;;;;;;;;;;;;;4892203;29;19934;-79
2023/11/21 00:13:54;;;;;;;;;;;;;;;;;;4881975;29;19923;-79
2023/11/21 00:16:19;;;;;;;;;;;;;;;;;;4907238;29;20255;-79
2023/11/21 00:18:46;;;;;;;;;;;;;;;;;;4879246;29;20315;-78
2023/11/21 00:21:12;;;;;;;;;;;;;;;;;;4912430;29;19927;-79
2023/11/21 00:30:10;;;;;;;;;;;;;;;;;;4914368;29;19969;-80
2023/11/21 00:32:36;;;;;;;;;;;;;;;;;;4912244;29;21525;-78
2023/11/21 00:35:01;;;;;;;;;;;;;;;;;;4894225;29;20422;-79
2023/11/21 00:37:26;;;;;;;;;;;;;;;;;;4912578;29;19919;-79
2023/11/21 00:39:52;;;;;;;;;;;;;;;;;;4894141;29;20385;-79
2023/11/21 00:42:17;;;;;;;;;;;;;;;;;;4896717;29;20318;-79
2023/11/21 00:44:42;;;;;;;;;;;;;;;;;;4895789;29;20271;-79
2023/11/21 00:47:10;;;;;;;;;;;;;;;;;;4908998;29;19935;-79
2023/11/21 00:49:35;;;;;;;;;;;;;;;;;;4910846;29;19992;-79
2023/11/21 00:52:01;;;;;;;;;;;;;;;;;;4910780;29;19962;-79
2023/11/21 00:54:26;;;;;;;;;;;;;;;;;;4891205;29;19926;-79
2023/11/21 00:56:54;;;;;;;;;;;;;;;;;;4912204;29;19965;-80
2023/11/21 00:59:19;;;;;;;;;;;;;;;;;;4897555;29;20018;-79
2023/11/21 01:01:44;;;;;;;;;;;;;;;;;;4893474;29;20053;-80
2023/11/21 01:04:10;;;;;;;;;;;;;;;;;;4892117;29;19944;-79
2023/11/21 01:06:36;;;;;;;;;;;;;;;;;;4895548;29;19923;-79
2023/11/21 01:09:01;;;;;;;;;;;;;;;;;;4906602;29;19915;-79
2023/11/21 01:11:26;;;;;;;;;;;;;;;;;;4906480;29;20394;-79
2023/11/21 01:13:53;;;;;;;;;;;;;;;;;;4894523;29;19934;-80
2023/11/21 01:16:21;;;;;;;;;;;;;;;;;;4895971;29;19941;-80
2023/11/21 01:18:46;;;;;;;;;;;;;;;;;;4895801;29;20583;-79
2023/11/21 01:21:13;;;;;;;;;;;;;;;;;;4911049;29;19975;-80
2023/11/21 01:23:39;;;;;;;;;;;;;;;;;;4910900;29;19915;-80
2023/11/21 01:26:04;;;;;;;;;;;;;;;;;;4891040;29;19930;-80
2023/11/21 01:28:30;;;;;;;;;;;;;;;;;;4890967;29;19919;-80
2023/11/21 01:30:56;;;;;;;;;;;;;;;;;;4893677;29;19922;-80
2023/11/21 01:33:21;;;;;;;;;;;;;;;;;;4894665;29;19926;-80
2023/11/21 01:35:46;;;;;;;;;;;;;;;;;;4894758;29;20461;-80
2023/11/21 01:38:12;;;;;;;;;;;;;;;;;;4906569;29;20357;-80
2023/11/21 01:40:37;;;;;;;;;;;;;;;;;;4895063;29;19940;-80
2023/11/21 01:43:03;;;;;;;;;;;;;;;;;;4911681;29;20128;-80
2023/11/21 01:45:30;;;;;;;;;;;;;;;;;;4898522;29;20088;-80
2023/11/21 01:47:56;;;;;;;;;;;;;;;;;;4905930;29;19931;-80
2023/11/21 01:50:22;;;;;;;;;;;;;;;;;;4894119;29;19970;-80
2023/11/21 01:52:48;;;;;;;;;;;;;;;;;;4907027;28;19923;-80
2023/11/21 01:55:13;;;;;;;;;;;;;;;;;;4894935;29;20294;-80
2023/11/21 01:57:38;;;;;;;;;;;;;;;;;;4881757;29;20393;-80
2023/11/21 02:00:15;;;;;;;;;;;;;;;;;;4897008;29;19926;-80
2023/11/21 02:02:40;;;;;;;;;;;;;;;;;;4896349;29;19930;-80
2023/11/21 02:05:05;;;;;;;;;;;;;;;;;;4884887;29;20235;-80
2023/11/21 02:07:32;;;;;;;;;;;;;;;;;;4900464;29;19919;-80
2023/11/21 02:09:57;;;;;;;;;;;;;;;;;;4897087;29;20466;-80
2023/11/21 02:12:22;;;;;;;;;;;;;;;;;;4899227;29;20291;-80
2023/11/21 02:14:48;;;;;;;;;;;;;;;;;;4915636;29;20263;-80
2023/11/21 02:17:14;;;;;;;;;;;;;;;;;;4898753;29;19959;-81
2023/11/21 02:19:39;;;;;;;;;;;;;;;;;;4899488;29;19918;-80
2023/11/21 02:22:06;;;;;;;;;;;;;;;;;;4911665;29;19980;-80
2023/11/21 02:24:31;;;;;;;;;;;;;;;;;;4897982;29;19915;-80
2023/11/21 02:26:56;;;;;;;;;;;;;;;;;;4910112;29;20316;-80
2023/11/21 02:29:22;;;;;;;;;;;;;;;;;;4914075;29;19923;-81
2023/11/21 02:31:51;;;;;;;;;;;;;;;;;;4909740;29;19934;-81
2023/11/21 02:34:19;;;;;;;;;;;;;;;;;;4896363;29;19923;-80
2023/11/21 02:36:44;;;;;;;;;;;;;;;;;;4894383;29;19978;-80
2023/11/21 02:39:10;;;;;;;;;;;;;;;;;;4896235;29;19923;-80
2023/11/21 02:41:35;;;;;;;;;;;;;;;;;;4896925;29;20763;-79
2023/11/21 02:44:00;;;;;;;;;;;;;;;;;;4893160;29;19923;-78
2023/11/21 02:46:26;;;;;;;;;;;;;;;;;;4914865;29;20373;-79
2023/11/21 02:48:53;;;;;;;;;;;;;;;;;;4914707;29;19922;-78
2023/11/21 02:51:18;;;;;;;;;;;;;;;;;;4916570;29;20308;-79
2023/11/21 02:57:00;;;;;;;;;;;;;;;;;;4915242;29;19945;-79
2023/11/21 02:59:25;;;;;;;;;;;;;;;;;;4915470;29;19923;-79
2023/11/21 03:01:51;;;;;;;;;;;;;;;;;;4915195;29;19931;-78
2023/11/21 03:04:18;;;;;;;;;;;;;;;;;;4883702;29;19974;-78
2023/11/21 03:06:43;;;;;;;;;;;;;;;;;;4884186;29;20029;-79
2023/11/21 03:09:16;;;;;;;;;;;;;;;;;;4883278;29;20014;-79
2023/11/21 03:11:48;;;;;;;;;;;;;;;;;;4906764;28;19927;-79
2023/11/21 03:14:14;;;;;;;;;;;;;;;;;;4907720;28;20017;-79
2023/11/21 03:16:40;;;;;;;;;;;;;;;;;;4884141;29;20487;-80
2023/11/21 03:19:08;;;;;;;;;;;;;;;;;;4899856;29;19923;-79
2023/11/21 03:24:49;;;;;;;;;;;;;;;;;;4912931;29;20692;-80
2023/11/21 03:27:14;;;;;;;;;;;;;;;;;;4897572;29;19923;-80
2023/11/21 03:29:40;;;;;;;;;;;;;;;;;;4897863;29;19926;-80
2023/11/21 03:32:05;;;;;;;;;;;;;;;;;;4895081;29;20390;-76
2023/11/21 03:34:30;;;;;;;;;;;;;;;;;;4916988;29;19926;-78
2023/11/21 03:36:56;;;;;;;;;;;;;;;;;;4894761;29;20033;-78
2023/11/21 03:39:22;;;;;;;;;;;;;;;;;;4913957;29;19919;-73
2023/11/21 03:41:47;;;;;;;;;;;;;;;;;;4910020;29;20263;-76
2023/11/21 03:44:12;;;;;;;;;;;;;;;;;;4917586;29;19997;-74
2023/11/21 03:46:37;;;;;;;;;;;;;;;;;;4901192;29;19926;-75
2023/11/21 03:49:03;;;;;;;;;;;;;;;;;;4914253;29;19915;-76
2023/11/21 03:51:28;;;;;;;;;;;;;;;;;;4906963;29;20567;-75
2023/11/21 03:53:54;;;;;;;;;;;;;;;;;;4911206;29;19911;-75
2023/11/21 03:56:21;;;;;;;;;;;;;;;;;;4933607;29;19981;-75
2023/11/21 03:58:46;;;;;;;;;;;;;;;;;;4936415;29;19937;-76
2023/11/21 04:01:12;;;;;;;;;;;;;;;;;;4918608;29;20375;-75
2023/11/21 04:03:38;;;;;;;;;;;;;;;;;;4926870;29;19915;-76
2023/11/21 04:06:03;;;;;;;;;;;;;;;;;;4918921;29;20347;-76
2023/11/21 04:14:08;;;;;;;;;;;;;;;;;;4917351;29;19970;-75
2023/11/21 04:16:33;;;;;;;;;;;;;;;;;;4914363;29;19929;-74
2023/11/21 04:18:58;;;;;;;;;;;;;;;;;;4902699;29;19919;-75
2023/11/21 04:21:24;;;;;;;;;;;;;;;;;;4919023;29;20394;-75
2023/11/21 04:23:53;;;;;;;;;;;;;;;;;;4888565;29;19918;-77
2023/11/21 04:26:18;;;;;;;;;;;;;;;;;;4916546;29;20000;-75
2023/11/21 04:28:44;;;;;;;;;;;;;;;;;;4910229;29;19931;-75
2023/11/21 04:31:09;;;;;;;;;;;;;;;;;;4898760;29;19934;-72
2023/11/21 04:33:35;;;;;;;;;;;;;;;;;;4908673;29;19934;-73
2023/11/21 04:36:00;;;;;;;;;;;;;;;;;;4884735;29;20366;-76
2023/11/21 04:38:25;;;;;;;;;;;;;;;;;;4893389;29;19923;-75
2023/11/21 04:40:51;;;;;;;;;;;;;;;;;;4885077;29;19919;-74
2023/11/21 04:43:18;;;;;;;;;;;;;;;;;;4898196;29;19919;-74
2023/11/21 04:45:46;;;;;;;;;;;;;;;;;;4896908;29;19926;-75
2023/11/21 04:48:12;;;;;;;;;;;;;;;;;;4895709;29;19931;-75
2023/11/21 04:50:40;;;;;;;;;;;;;;;;;;4883708;29;19986;-72
2023/11/21 04:53:05;;;;;;;;;;;;;;;;;;4914103;29;19934;-74
2023/11/21 04:55:31;;;;;;;;;;;;;;;;;;4883470;29;20033;-76
2023/11/21 04:58:14;;;;;;;;;;;;;;;;;;4911736;29;20375;-75
2023/11/21 05:00:40;;;;;;;;;;;;;;;;;;4895387;29;19919;-74
2023/11/21 05:03:14;;;;;;;;;;;;;;;;;;4910639;29;20453;-74
2023/11/21 05:05:40;;;;;;;;;;;;;;;;;;4911608;29;20624;-75
2023/11/21 05:08:06;;;;;;;;;;;;;;;;;;4911083;29;20412;-75
2023/11/21 05:10:31;;;;;;;;;;;;;;;;;;4897170;29;20403;-74
2023/11/21 05:12:57;;;;;;;;;;;;;;;;;;4898983;29;20369;-69
2023/11/21 05:15:23;;;;;;;;;;;;;;;;;;4914716;29;19922;-76
2023/11/21 05:17:49;;;;;;;;;;;;;;;;;;4897331;29;19926;-74
2023/11/21 05:20:17;;;;;;;;;;;;;;;;;;4914008;29;19919;-73
2023/11/21 05:22:42;;;;;;;;;;;;;;;;;;4895032;29;19919;-75
2023/11/21 05:25:08;;;;;;;;;;;;;;;;;;4896292;29;19919;-76
2023/11/21 05:27:33;;;;;;;;;;;;;;;;;;4895989;29;20472;-76
2023/11/21 05:30:19;;;;;;;;;;;;;;;;;;4910924;29;19922;-77
2023/11/21 05:32:46;;;;;;;;;;;;;;;;;;4884515;29;20293;-75
2023/11/21 05:35:18;;;;;;;;;;;;;;;;;;4915877;29;20462;-75
2023/11/21 05:37:43;;;;;;;;;;;;;;;;;;4898645;29;20007;-75
2023/11/21 05:40:08;;;;;;;;;;;;;;;;;;4896824;29;19923;-77
2023/11/21 05:42:34;;;;;;;;;;;;;;;;;;4910235;29;19923;-76
2023/11/21 05:45:15;;;;;;;;;;;;;;;;;;4886242;29;19927;-76
2023/11/21 05:47:40;;;;;;;;;;;;;;;;;;4901485;29;19927;-75
2023/11/21 05:50:06;;;;;;;;;;;;;;;;;;4886132;29;20362;-75
2023/11/21 05:55:49;;;;;;;;;;;;;;;;;;4919377;29;20434;-76
2023/11/21 05:58:15;;;;;;;;;;;;;;;;;;4898099;29;20382;-76
2023/11/21 06:00:40;;;;;;;;;;;;;;;;;;4888267;29;19923;-74
2023/11/21 06:03:06;;;;;;;;;;;;;;;;;;4920477;29;20312;-75
2023/11/21 06:05:32;;;;;;;;;;;;;;;;;;4917377;29;19919;-76
2023/11/21 06:08:00;;;;;;;;;;;;;;;;;;4899053;29;20523;-78
2023/11/21 06:10:26;;;;;;;;;;;;;;;;;;4899094;29;20337;-75
2023/11/21 06:12:51;;;;;;;;;;;;;;;;;;4909891;29;19927;-72
2023/11/21 06:15:19;;;;;;;;;;;;;;;;;;4880000;29;20003;-74
2023/11/21 06:17:45;;;;;;;;;;;;;;;;;;4895696;29;19926;-71
2023/11/21 06:20:13;;;;;;;;;;;;;;;;;;4880638;29;19922;-75
2023/11/21 06:22:39;;;;;;;;;;;;;;;;;;4890445;29;19918;-71
2023/11/21 06:25:05;;;;;;;;;;;;;;;;;;4893970;29;20447;-72
2023/11/21 06:27:30;;;;;;;;;;;;;;;;;;4895407;29;20422;-70
2023/11/21 06:29:56;;;;;;;;;;;;;;;;;;4892222;29;19934;-72
2023/11/21 06:32:22;;;;;;;;;;;;;;;;;;4893721;29;20002;-69
2023/11/21 06:34:47;;;;;;;;;;;;;;;;;;4880627;29;20339;-71
2023/11/21 06:37:13;;;;;;;;;;;;;;;;;;4882205;29;19958;-70
2023/11/21 06:39:38;;;;;;;;;;;;;;;;;;4880621;29;19930;-70
2023/11/21 06:42:05;;;;;;;;;;;;;;;;;;4918265;28;20280;-71
2023/11/21 06:44:30;;;;;;;;;;;;;;;;;;4910627;29;20296;-71
2023/11/21 06:46:55;;;;;;;;;;;;;;;;;;4904515;29;19927;-71
2023/11/21 06:49:20;;;;;;;;;;;;;;;;;;4899747;29;20483;-70
2023/11/21 06:51:46;;;;;;;;;;;;;;;;;;4908779;29;19969;-72
2023/11/21 06:54:12;;;;;;;;;;;;;;;;;;4915625;29;19954;-71
2023/11/21 06:56:40;;;;;;;;;;;;;;;;;;4898262;29;20064;-71
2023/11/21 06:59:06;;;;;;;;;;;;;;;;;;4882654;29;20442;-71
2023/11/21 07:01:38;;;;;;;;;;;;;;;;;;4895824;29;19923;-70
2023/11/21 07:04:03;;;;;;;;;;;;;;;;;;4914661;29;20299;-72
2023/11/21 07:06:29;;;;;;;;;;;;;;;;;;4893670;29;19926;-72
2023/11/21 07:08:54;;;;;;;;;;;;;;;;;;4895906;29;19925;-70
2023/11/21 07:11:19;;;;;;;;;;;;;;;;;;4885152;29;19927;-72
2023/11/21 07:13:45;;;;;;;;;;;;;;;;;;4907287;29;19922;-70
2023/11/21 07:16:14;;;;;;;;;;;;;;;;;;4882934;29;20354;-71
2023/11/21 07:18:40;;;;;;;;;;;;;;;;;;4884474;29;19950;-71
2023/11/21 07:24:22;;;;;;;;;;;;;;;;;;4910797;29;20498;-72
2023/11/21 07:26:48;;;;;;;;;;;;;;;;;;4909115;29;19919;-73
2023/11/21 07:29:13;;;;;;;;;;;;;;;;;;4896939;29;20018;-74
2023/11/21 07:31:38;;;;;;;;;;;;;;;;;;4891833;29;20394;-74
2023/11/21 07:34:04;;;;;;;;;;;;;;;;;;4897249;29;19997;-72
2023/11/21 07:36:29;;;;;;;;;;;;;;;;;;4898113;29;19919;-72
2023/11/21 07:38:54;;;;;;;;;;;;;;;;;;4897268;29;20007;-68
2023/11/21 07:41:20;;;;;;;;;;;;;;;;;;4899527;29;19919;-74
2023/11/21 07:43:46;;;;;;;;;;;;;;;;;;4896609;29;19923;-74
2023/11/21 07:46:12;;;;;;;;;;;;;;;;;;4913836;29;19966;-73
2023/11/21 07:48:37;;;;;;;;;;;;;;;;;;4883359;29;19930;-72
2023/11/21 07:51:13;;;;;;;;;;;;;;;;;;4898890;29;19981;-73
2023/11/21 07:53:41;;;;;;;;;;;;;;;;;;4884622;29;20335;-73
2023/11/21 07:56:07;;;;;;;;;;;;;;;;;;4883071;29;20010;-74
2023/11/21 07:58:33;;;;;;;;;;;;;;;;;;4896931;29;19961;-72
2023/11/21 08:00:59;;;;;;;;;;;;;;;;;;4913029;29;19919;-73
2023/11/21 08:03:26;;;;;;;;;;;;;;;;;;4898098;29;19958;-73
2023/11/21 08:05:51;;;;;;;;;;;;;;;;;;4894865;29;20016;-72
2023/11/21 08:08:18;;;;;;;;;;;;;;;;;;4892462;29;20342;-74
2023/11/21 08:10:55;;;;;;;;;;;;;;;;;;4897192;29;19919;-72
2023/11/21 08:13:21;;;;;;;;;;;;;;;;;;4895699;29;20630;-71
2023/11/21 08:15:46;;;;;;;;;;;;;;;;;;4915575;29;19960;-71
2023/11/21 08:18:12;;;;;;;;;;;;;;;;;;4913272;29;20032;-75
2023/11/21 08:20:39;;;;;;;;;;;;;;;;;;4885705;29;19922;-74
2023/11/21 08:23:05;;;;;;;;;;;;;;;;;;4897480;29;20002;-73
2023/11/21 08:25:31;;;;;;;;;;;;;;;;;;4898493;29;19926;-72
2023/11/21 08:27:57;;;;;;;;;;;;;;;;;;4884764;29;19922;-74
2023/11/21 08:30:23;;;;;;;;;;;;;;;;;;4901824;29;20306;-75
2023/11/21 08:32:49;;;;;;;;;;;;;;;;;;4913464;29;19930;-73
2023/11/21 08:35:15;;;;;;;;;;;;;;;;;;4895477;29;19937;-75
2023/11/21 08:37:41;;;;;;;;;;;;;;;;;;4898638;29;20272;-75
2023/11/21 08:40:12;;;;;;;;;;;;;;;;;;4897899;29;19929;-75
2023/11/21 08:42:37;;;;;;;;;;;;;;;;;;4915310;29;20006;-76
2023/11/21 08:45:03;;;;;;;;;;;;;;;;;;4899302;29;20025;-76
2023/11/21 08:47:28;;;;;;;;;;;;;;;;;;4920850;29;20303;-72
2023/11/21 08:49:53;;;;;;;;;;;;;;;;;;4901074;29;20438;-73
2023/11/21 08:52:19;;;;;;;;;;;;;;;;;;4896061;29;19973;-71
2023/11/21 08:54:48;;;;;;;;;;;;;;;;;;4913074;29;20276;-74
2023/11/21 08:57:14;;;;;;;;;;;;;;;;;;4886679;29;19926;-75
2023/11/21 08:59:39;;;;;;;;;;;;;;;;;;4888354;29;20283;-76
2023/11/21 09:02:04;;;;;;;;;;;;;;;;;;4905386;29;19950;-75
2023/11/21 09:04:32;;;;;;;;;;;;;;;;;;4899153;29;20282;-76
2023/11/21 09:07:00;;;;;;;;;;;;;;;;;;4901743;29;19957;-75
2023/11/21 09:09:29;;;;;;;;;;;;;;;;;;4886767;29;20003;-78
2023/11/21 09:12:12;;;;;;;;;;;;;;;;;;4896690;29;19923;-74
2023/11/21 09:14:40;;;;;;;;;;;;;;;;;;4903100;29;19926;-75
2023/11/21 09:17:10;;;;;;;;;;;;;;;;;;4915473;29;19919;-74
2023/11/21 09:19:36;;;;;;;;;;;;;;;;;;4912639;29;20286;-76
2023/11/21 09:22:04;;;;;;;;;;;;;;;;;;4892956;29;19919;-75
2023/11/21 09:24:32;;;;;;;;;;;;;;;;;;4898615;29;19922;-77
2023/11/21 09:26:57;;;;;;;;;;;;;;;;;;4898206;29;19962;-76
2023/11/21 09:29:22;;;;;;;;;;;;;;;;;;4885125;29;20366;-74
2023/11/21 09:31:51;;;;;;;;;;;;;;;;;;4907095;29;20128;-75
2023/11/21 09:34:18;;;;;;;;;;;;;;;;;;4898629;29;20708;-73
2023/11/21 09:36:44;;;;;;;;;;;;;;;;;;4895886;29;20017;-75
2023/11/21 09:39:14;;;;;;;;;;;;;;;;;;4912518;29;19918;-72
2023/11/21 09:41:43;;;;;;;;;;;;;;;;;;4900319;29;20050;-76
2023/11/21 09:44:11;;;;;;;;;;;;;;;;;;4897370;29;19919;-75
2023/11/21 09:46:39;;;;;;;;;;;;;;;;;;4893159;29;19953;-76
2023/11/21 09:49:08;;;;;;;;;;;;;;;;;;4883152;29;20371;-76
2023/11/21 09:51:38;;;;;;;;;;;;;;;;;;4911920;29;20363;-75
2023/11/21 09:54:06;;;;;;;;;;;;;;;;;;4895938;29;20431;-76
2023/11/21 09:56:35;;;;;;;;;;;;;;;;;;4898750;29;19923;-76
2023/11/21 09:59:06;;;;;;;;;;;;;;;;;;4911958;29;20420;-74
2023/11/21 10:01:34;;;;;;;;;;;;;;;;;;4894878;29;19919;-75
2023/11/21 10:03:59;;;;;;;;;;;;;;;;;;4905877;29;19919;-73
2023/11/21 10:06:30;;;;;;;;;;;;;;;;;;4896092;29;20274;-74
2023/11/21 10:08:58;;;;;;;;;;;;;;;;;;4883317;29;20547;-76
2023/11/21 10:11:24;;;;;;;;;;;;;;;;;;4893836;29;20950;-76
2023/11/21 10:13:50;;;;;;;;;;;;;;;;;;4895329;29;20025;-75
2023/11/21 10:16:29;;;;;;;;;;;;;;;;;;4910934;29;19923;-75
2023/11/21 10:18:55;;;;;;;;;;;;;;;;;;4895809;29;20383;-75
2023/11/21 10:21:23;;;;;;;;;;;;;;;;;;4883126;29;19998;-76
2023/11/21 10:23:49;;;;;;;;;;;;;;;;;;4894803;29;19918;-75
2023/11/21 10:26:17;;;;;;;;;;;;;;;;;;4914893;29;19923;-78
2023/11/21 10:32:01;;;;;;;;;;;;;;;;;;4913033;29;19974;-77
2023/11/21 10:34:29;;;;;;;;;;;;;;;;;;4885888;29;20425;-76
2023/11/21 10:36:57;;;;;;;;;;;;;;;;;;4899307;29;19954;-78
2023/11/21 10:39:23;;;;;;;;;;;;;;;;;;4899280;29;21459;-77
2023/11/21 10:41:49;;;;;;;;;;;;;;;;;;4914519;29;19919;-77
2023/11/21 10:44:19;;;;;;;;;;;;;;;;;;4896421;29;19966;-76
2023/11/21 10:46:50;;;;;;;;;;;;;;;;;;4913725;29;20279;-79
2023/11/21 10:49:15;;;;;;;;;;;;;;;;;;4897468;29;19923;-74
2023/11/21 10:51:43;;;;;;;;;;;;;;;;;;4914859;29;20483;-75
2023/11/21 10:54:08;;;;;;;;;;;;;;;;;;4915453;29;20105;-75
2023/11/21 10:56:35;;;;;;;;;;;;;;;;;;4895455;29;19946;-77
2023/11/21 10:59:01;;;;;;;;;;;;;;;;;;4899277;29;19922;-77
2023/11/21 11:01:26;;;;;;;;;;;;;;;;;;4914003;29;19945;-76
2023/11/21 11:03:54;;;;;;;;;;;;;;;;;;4884627;29;20187;-78
2023/11/21 11:06:19;;;;;;;;;;;;;;;;;;4886218;29;19930;-80
2023/11/21 11:08:45;;;;;;;;;;;;;;;;;;4896608;29;19922;-77
2023/11/21 11:11:11;;;;;;;;;;;;;;;;;;4899657;29;20002;-76
2023/11/21 11:13:39;;;;;;;;;;;;;;;;;;4913692;29;19934;-77
2023/11/21 11:16:10;;;;;;;;;;;;;;;;;;4897958;29;20089;-77
2023/11/21 11:18:35;;;;;;;;;;;;;;;;;;4884791;29;20267;-77
2023/11/21 11:21:01;;;;;;;;;;;;;;;;;;4915449;29;19923;-78
2023/11/21 11:23:26;;;;;;;;;;;;;;;;;;4899396;29;20579;-77
2023/11/21 11:25:51;;;;;;;;;;;;;;;;;;4897825;29;20843;-78
2023/11/21 11:28:18;;;;;;;;;;;;;;;;;;4893132;29;19919;-77
2023/11/21 11:30:45;;;;;;;;;;;;;;;;;;4898039;29;19948;-75
2023/11/21 11:33:11;;;;;;;;;;;;;;;;;;4893114;29;19927;-77
2023/11/21 11:35:36;;;;;;;;;;;;;;;;;;4897833;29;19929;-79
2023/11/21 11:41:17;;;;;;;;;;;;;;;;;;4914972;29;19994;-76
2023/11/21 11:43:46;;;;;;;;;;;;;;;;;;4897420;29;19927;-78
2023/11/21 11:46:14;;;;;;;;;;;;;;;;;;4915265;29;19919;-78
2023/11/21 11:48:40;;;;;;;;;;;;;;;;;;4895072;29;19927;-74
2023/11/21 11:51:11;;;;;;;;;;;;;;;;;;4898272;29;20796;-77
2023/11/21 11:53:37;;;;;;;;;;;;;;;;;;4915307;29;20408;-77
2023/11/21 11:56:03;;;;;;;;;;;;;;;;;;4898348;29;19923;-80
2023/11/21 11:58:28;;;;;;;;;;;;;;;;;;4897110;29;19942;-78
2023/11/21 12:00:55;;;;;;;;;;;;;;;;;;4914332;29;20382;-76
2023/11/21 12:06:36;;;;;;;;;;;;;;;;;;4915126;29;20394;-77
2023/11/21 12:09:04;;;;;;;;;;;;;;;;;;4917420;29;19923;-77
2023/11/21 12:11:30;;;;;;;;;;;;;;;;;;4899678;29;20238;-75
2023/11/21 12:13:58;;;;;;;;;;;;;;;;;;4916575;29;20132;-74
2023/11/21 12:16:27;;;;;;;;;;;;;;;;;;4916244;29;19919;-76
2023/11/21 12:18:53;;;;;;;;;;;;;;;;;;4900998;29;20522;-76
2023/11/21 12:21:18;;;;;;;;;;;;;;;;;;4901452;29;19937;-76
2023/11/21 12:23:46;;;;;;;;;;;;;;;;;;4901288;29;19919;-76
2023/11/21 12:26:12;;;;;;;;;;;;;;;;;;4901639;29;20367;-76
2023/11/21 12:28:38;;;;;;;;;;;;;;;;;;4898515;29;19930;-77
2023/11/21 12:31:03;;;;;;;;;;;;;;;;;;4891715;29;19919;-76
2023/11/21 12:33:29;;;;;;;;;;;;;;;;;;4898239;29;19923;-79
2023/11/21 12:39:10;;;;;;;;;;;;;;;;;;4914417;29;19947;-77
2023/11/21 12:41:36;;;;;;;;;;;;;;;;;;4897082;29;19923;-80
2023/11/21 12:44:01;;;;;;;;;;;;;;;;;;4897033;29;19922;-78
2023/11/21 12:46:29;;;;;;;;;;;;;;;;;;4906585;29;20375;-76
2023/11/21 12:48:55;;;;;;;;;;;;;;;;;;4895439;29;19931;-79
2023/11/21 12:51:23;;;;;;;;;;;;;;;;;;4913457;29;19934;-79
2023/11/21 12:53:48;;;;;;;;;;;;;;;;;;4896247;29;19919;-73
2023/11/21 12:56:16;;;;;;;;;;;;;;;;;;4896207;29;20374;-78
2023/11/21 12:58:42;;;;;;;;;;;;;;;;;;4896114;29;20713;-75
2023/11/21 13:01:11;;;;;;;;;;;;;;;;;;4883291;29;19962;-77
2023/11/21 13:03:54;;;;;;;;;;;;;;;;;;4912522;29;19937;-79
2023/11/21 13:09:35;;;;;;;;;;;;;;;;;;4911707;29;19997;-78
2023/11/21 13:12:03;;;;;;;;;;;;;;;;;;4909642;29;19958;-77
2023/11/21 13:14:28;;;;;;;;;;;;;;;;;;4885803;29;19922;-76
2023/11/21 13:16:55;;;;;;;;;;;;;;;;;;4881632;29;20211;-76
2023/11/21 13:19:21;;;;;;;;;;;;;;;;;;4914537;29;20238;-76
2023/11/21 13:21:49;;;;;;;;;;;;;;;;;;4914049;29;20350;-77
2023/11/21 13:24:14;;;;;;;;;;;;;;;;;;4896262;29;19918;-77
2023/11/21 13:26:40;;;;;;;;;;;;;;;;;;4896036;29;19958;-78
2023/11/21 13:29:05;;;;;;;;;;;;;;;;;;4898638;29;19982;-76
2023/11/21 13:31:36;;;;;;;;;;;;;;;;;;4910631;29;19964;-77
2023/11/21 13:34:05;;;;;;;;;;;;;;;;;;4899249;29;19919;-76
2023/11/21 13:36:32;;;;;;;;;;;;;;;;;;4907961;29;20366;-76
2023/11/21 13:38:58;;;;;;;;;;;;;;;;;;4897649;29;19919;-78
2023/11/21 13:41:30;;;;;;;;;;;;;;;;;;4891960;29;19919;-77
2023/11/21 13:44:03;;;;;;;;;;;;;;;;;;4895053;29;20371;-79
2023/11/21 13:46:28;;;;;;;;;;;;;;;;;;4892685;29;19914;-77
2023/11/21 13:48:55;;;;;;;;;;;;;;;;;;4897194;29;20047;-81
2023/11/21 13:51:29;;;;;;;;;;;;;;;;;;4898608;29;21035;-78
2023/11/21 13:53:57;;;;;;;;;;;;;;;;;;4912460;29;19953;-78
2023/11/21 13:56:24;;;;;;;;;;;;;;;;;;4893717;29;19923;-77
2023/11/21 13:58:52;;;;;;;;;;;;;;;;;;4899176;29;20396;-80
2023/11/21 14:04:01;;;;;;;;;;;;;;;;;;4899613;29;20421;-80
2023/11/21 14:06:34;;;;;;;;;;;;;;;;;;4901930;29;19923;-80
2023/11/21 14:09:04;;;;;;;;;;;;;;;;;;4903890;29;19919;-81
2023/11/21 14:11:30;;;;;;;;;;;;;;;;;;4912862;29;20018;-78
2023/11/21 14:13:55;;;;;;;;;;;;;;;;;;4919148;29;20305;-79
2023/11/21 14:16:21;;;;;;;;;;;;;;;;;;4887009;29;19923;-80
2023/11/21 14:18:58;;;;;;;;;;;;;;;;;;4899714;29;20191;-78
2023/11/21 14:21:24;;;;;;;;;;;;;;;;;;4898064;29;19919;-79
2023/11/21 14:23:49;;;;;;;;;;;;;;;;;;4888371;29;19926;-80
2023/11/21 14:26:15;;;;;;;;;;;;;;;;;;4910790;29;20450;-79
2023/11/21 14:28:40;;;;;;;;;;;;;;;;;;4901691;29;19915;-79
2023/11/21 14:31:05;;;;;;;;;;;;;;;;;;4897163;29;19997;-79
2023/11/21 14:33:30;;;;;;;;;;;;;;;;;;4900719;29;20261;-81
2023/11/21 14:35:58;;;;;;;;;;;;;;;;;;4901613;29;20266;-77
2023/11/21 14:38:24;;;;;;;;;;;;;;;;;;4911794;29;19915;-77
2023/11/21 14:40:49;;;;;;;;;;;;;;;;;;4901227;29;19923;-78
2023/11/21 14:43:15;;;;;;;;;;;;;;;;;;4913674;29;20191;-78
2023/11/21 14:45:40;;;;;;;;;;;;;;;;;;4902035;29;19940;-81
2023/11/21 14:51:30;;;;;;;;;;;;;;;;;;4915421;29;19978;-79
2023/11/21 14:53:59;;;;;;;;;;;;;;;;;;4901019;29;20386;-76
2023/11/21 14:59:41;;;;;;;;;;;;;;;;;;4915396;29;19921;-79
2023/11/21 15:02:20;;;;;;;;;;;;;;;;;;4916424;29;19954;-80
2023/11/21 15:04:46;;;;;;;;;;;;;;;;;;4899355;29;20506;-79
2023/11/21 15:07:11;;;;;;;;;;;;;;;;;;4898099;29;19925;-79
2023/11/21 15:09:44;;;;;;;;;;;;;;;;;;4914681;29;19930;-79
2023/11/21 15:12:16;;;;;;;;;;;;;;;;;;4886886;29;20017;-78
2023/11/21 15:14:42;;;;;;;;;;;;;;;;;;4897213;29;19923;-78
2023/11/21 15:17:09;;;;;;;;;;;;;;;;;;4898119;29;19923;-79
2023/11/21 15:19:35;;;;;;;;;;;;;;;;;;4910549;29;19923;-78
2023/11/21 15:22:00;;;;;;;;;;;;;;;;;;4900322;29;20261;-79
2023/11/21 15:24:25;;;;;;;;;;;;;;;;;;4916590;29;19964;-78
2023/11/21 15:26:51;;;;;;;;;;;;;;;;;;4898878;29;19986;-78
2023/11/21 15:29:16;;;;;;;;;;;;;;;;;;4898184;29;19962;-78
2023/11/21 15:31:47;;;;;;;;;;;;;;;;;;4899587;29;19922;-78
2023/11/21 15:34:13;;;;;;;;;;;;;;;;;;4916783;29;19981;-78
2023/11/21 15:36:38;;;;;;;;;;;;;;;;;;4886427;29;20387;-77
2023/11/21 15:39:03;;;;;;;;;;;;;;;;;;4897533;29;19923;-78
2023/11/21 15:41:28;;;;;;;;;;;;;;;;;;4898892;29;19919;-78
2023/11/21 15:43:54;;;;;;;;;;;;;;;;;;4916778;29;20273;-77
2023/11/21 15:46:19;;;;;;;;;;;;;;;;;;4907993;29;20403;-78
2023/11/21 15:48:50;;;;;;;;;;;;;;;;;;4890628;29;20060;-78
2023/11/21 15:51:16;;;;;;;;;;;;;;;;;;4901317;29;19919;-77
2023/11/21 15:53:41;;;;;;;;;;;;;;;;;;4893780;29;19919;-78
2023/11/21 15:56:12;;;;;;;;;;;;;;;;;;4909269;29;19926;-79
2023/11/21 15:58:37;;;;;;;;;;;;;;;;;;4906740;29;20005;-78
2023/11/21 16:01:05;;;;;;;;;;;;;;;;;;4883569;29;19923;-76
2023/11/21 16:03:33;;;;;;;;;;;;;;;;;;4899207;29;19922;-77
2023/11/21 16:05:58;;;;;;;;;;;;;;;;;;4898943;29;19919;-77
2023/11/21 16:11:40;;;;;;;;;;;;;;;;;;4914362;29;19956;-80
2023/11/21 16:14:05;;;;;;;;;;;;;;;;;;4882690;29;20695;-79
2023/11/21 16:16:30;;;;;;;;;;;;;;;;;;4881776;29;21506;-79
2023/11/21 16:18:55;;;;;;;;;;;;;;;;;;4896308;29;20359;-79
2023/11/21 16:21:21;;;;;;;;;;;;;;;;;;4911654;29;19926;-79
2023/11/21 16:23:46;;;;;;;;;;;;;;;;;;4913886;29;20808;-76
2023/11/21 16:26:11;;;;;;;;;;;;;;;;;;4912482;29;19962;-78
2023/11/21 16:28:37;;;;;;;;;;;;;;;;;;4907773;29;19932;-78
2023/11/21 16:31:02;;;;;;;;;;;;;;;;;;4906981;29;20010;-79
2023/11/21 16:33:28;;;;;;;;;;;;;;;;;;4906374;29;19958;-81
2023/11/21 16:35:53;;;;;;;;;;;;;;;;;;4898264;29;19942;-79
2023/11/21 16:38:18;;;;;;;;;;;;;;;;;;4914118;29;19942;-79
2023/11/21 16:40:46;;;;;;;;;;;;;;;;;;4897304;29;20350;-78
2023/11/21 16:43:11;;;;;;;;;;;;;;;;;;4894466;29;19923;-78
2023/11/21 16:45:37;;;;;;;;;;;;;;;;;;4913748;29;20377;-78
2023/11/21 16:51:19;;;;;;;;;;;;;;;;;;4913896;29;19994;-80
2023/11/21 16:53:44;;;;;;;;;;;;;;;;;;4909252;29;20335;-80
2023/11/21 16:56:09;;;;;;;;;;;;;;;;;;4915802;29;20733;-79
2023/11/21 16:58:35;;;;;;;;;;;;;;;;;;4892696;29;19930;-78
2023/11/21 17:01:02;;;;;;;;;;;;;;;;;;4913696;29;20283;-79
2023/11/21 17:03:27;;;;;;;;;;;;;;;;;;4895988;29;19929;-79
2023/11/21 17:05:52;;;;;;;;;;;;;;;;;;4914842;29;19919;-79
2023/11/21 17:08:19;;;;;;;;;;;;;;;;;;4885321;29;19925;-79
2023/11/21 17:10:46;;;;;;;;;;;;;;;;;;4911818;29;19971;-79
2023/11/21 17:13:11;;;;;;;;;;;;;;;;;;4881355;29;19923;-79
2023/11/21 17:15:37;;;;;;;;;;;;;;;;;;4883356;29;19923;-78
2023/11/21 17:18:03;;;;;;;;;;;;;;;;;;4894967;29;20421;-79
2023/11/21 17:20:28;;;;;;;;;;;;;;;;;;4895761;29;19919;-78
2023/11/21 17:22:55;;;;;;;;;;;;;;;;;;4896683;29;19919;-79
2023/11/21 17:25:20;;;;;;;;;;;;;;;;;;4892546;29;19958;-79
2023/11/21 17:27:46;;;;;;;;;;;;;;;;;;4894598;29;20097;-79
2023/11/21 17:30:11;;;;;;;;;;;;;;;;;;4896878;29;20405;-79
2023/11/21 17:32:37;;;;;;;;;;;;;;;;;;4891140;29;20025;-79
2023/11/21 17:35:02;;;;;;;;;;;;;;;;;;4893120;29;20419;-79
2023/11/21 17:37:27;;;;;;;;;;;;;;;;;;4891504;29;20888;-79
2023/11/21 17:39:54;;;;;;;;;;;;;;;;;;4912545;29;20031;-79